createdAt,value
2019-04-16T00:00:27.296Z,93.4066
2019-04-16T00:01:30.306Z,92.7581
2019-04-16T00:02:33.294Z,92.6436
2019-04-16T00:03:36.326Z,93.5393
2019-04-16T00:04:39.300Z,93.5088
2019-04-16T00:05:42.284Z,93.5409
2019-04-16T00:06:45.316Z,92.4544
2019-04-16T00:07:49.332Z,91.0353
2019-04-16T00:08:54.171Z,89.4621
2019-04-16T00:10:00.066Z,91.2245
2019-04-16T00:11:04.220Z,91.6945
2019-04-16T00:12:08.114Z,92.0241
2019-04-16T00:13:41.147Z,92.0851
2019-04-16T00:14:43.464Z,91.7647
2019-04-16T00:15:46.355Z,92.2621
2019-04-16T00:16:49.320Z,92.3781
2019-04-16T00:17:52.302Z,89.7551
2019-04-16T00:18:57.921Z,86.9795
2019-04-16T00:20:05.873Z,87.8370
2019-04-16T00:21:10.772Z,87.4846
2019-04-16T00:22:15.073Z,87.9927
2019-04-16T00:23:19.064Z,87.6478
2019-04-16T00:24:23.129Z,88.4092
2019-04-16T00:25:27.053Z,90.0237
2019-04-16T00:26:31.119Z,90.5135
2019-04-16T00:27:35.692Z,89.6345
2019-04-16T00:28:38.310Z,89.7871
2019-04-16T00:29:42.681Z,89.9977
2019-04-16T00:30:46.122Z,89.0455
2019-04-16T00:31:51.321Z,87.7272
2019-04-16T00:32:55.079Z,88.7571
2019-04-16T00:33:59.129Z,87.9820
2019-04-16T00:35:03.177Z,87.5853
2019-04-16T00:36:07.128Z,87.8813
2019-04-16T00:37:11.050Z,88.4764
2019-04-16T00:38:16.962Z,88.6183
2019-04-16T00:39:24.368Z,88.8853
2019-04-16T00:40:28.927Z,88.2704
2019-04-16T00:41:32.328Z,88.9204
2019-04-16T00:42:35.314Z,89.2332
2019-04-16T00:43:38.303Z,88.9525
2019-04-16T00:44:41.300Z,89.3004
2019-04-16T00:45:44.294Z,89.7810
2019-04-16T00:46:47.299Z,90.3044
2019-04-16T00:47:51.425Z,90.1625
2019-04-16T00:48:55.299Z,90.1900
2019-04-16T00:49:58.831Z,89.9245
2019-04-16T00:51:02.309Z,88.4825
2019-04-16T00:52:06.925Z,89.3065
2019-04-16T00:53:10.286Z,89.6132
2019-04-16T00:54:13.321Z,90.4036
2019-04-16T00:55:16.324Z,91.1696
2019-04-16T00:56:19.315Z,91.5572
2019-04-16T00:57:22.328Z,91.6503
2019-04-16T00:58:25.287Z,92.4743
2019-04-16T00:59:28.312Z,92.2866
2019-04-16T01:00:31.371Z,91.8700
2019-04-16T01:01:33.325Z,92.3171
2019-04-16T01:02:36.304Z,92.7062
2019-04-16T01:03:39.308Z,92.1202
2019-04-16T01:04:42.286Z,92.2850
2019-04-16T01:05:45.302Z,93.2876
2019-04-16T01:06:48.999Z,93.7316
2019-04-16T01:07:51.365Z,93.2204
2019-04-16T01:08:55.203Z,92.9183
2019-04-16T01:09:58.931Z,92.9397
2019-04-16T01:11:02.281Z,92.7428
2019-04-16T01:12:05.300Z,92.1340
2019-04-16T01:13:08.898Z,90.7011
2019-04-16T01:14:12.321Z,89.6178
2019-04-16T01:15:16.049Z,90.1152
2019-04-16T01:16:20.038Z,91.0231
2019-04-16T01:17:23.385Z,90.6432
2019-04-16T01:18:26.974Z,90.1610
2019-04-16T01:19:30.305Z,90.5913
2019-04-16T01:20:32.313Z,90.7942
2019-04-16T01:21:36.044Z,91.3939
2019-04-16T01:22:40.011Z,91.2688
2019-04-16T01:23:43.318Z,90.7210
2019-04-16T01:24:46.240Z,91.4534
2019-04-16T01:25:50.099Z,91.9142
2019-04-16T01:26:55.412Z,92.4636
2019-04-16T01:28:01.986Z,92.4605
2019-04-16T01:29:05.295Z,93.0236
2019-04-16T01:30:08.290Z,93.3837
2019-04-16T01:31:11.326Z,93.4768
2019-04-16T01:32:14.300Z,93.4707
2019-04-16T01:33:17.342Z,93.3715
2019-04-16T01:34:21.043Z,93.7774
2019-04-16T01:35:24.989Z,93.9117
2019-04-16T01:36:28.763Z,93.9834
2019-04-16T01:37:31.993Z,93.7636
2019-04-16T01:38:34.900Z,93.6370
2019-04-16T01:39:38.312Z,93.8918
2019-04-16T01:40:41.980Z,93.9788
2019-04-16T01:41:45.325Z,94.6014
2019-04-16T01:42:48.300Z,94.4015
2019-04-16T01:43:51.296Z,94.0887
2019-04-16T01:44:54.313Z,93.9529
2019-04-16T01:46:00.768Z,94.2733
2019-04-16T01:47:05.383Z,94.8531
2019-04-16T01:48:09.081Z,94.6303
2019-04-16T01:49:12.975Z,94.0291
2019-04-16T01:50:16.289Z,94.1497
2019-04-16T01:51:19.976Z,93.6172
2019-04-16T01:52:23.303Z,94.8363
2019-04-16T01:53:26.359Z,95.7732
2019-04-16T01:54:29.318Z,95.9396
2019-04-16T01:55:32.321Z,95.2529
2019-04-16T01:56:35.308Z,95.6817
2019-04-16T01:57:38.309Z,96.0891
2019-04-16T01:58:41.317Z,96.2219
2019-04-16T01:59:44.289Z,96.5988
2019-04-16T02:00:47.307Z,96.6522
2019-04-16T02:01:49.302Z,96.4096
2019-04-16T02:02:52.328Z,95.5901
2019-04-16T02:03:54.314Z,95.5489
2019-04-16T02:04:57.316Z,95.2300
2019-04-16T02:06:00.304Z,94.4244
2019-04-16T02:07:03.423Z,93.2281
2019-04-16T02:08:06.325Z,93.2342
2019-04-16T02:09:21.684Z,93.5363
2019-04-16T02:10:17.310Z,93.5363
2019-04-16T02:11:20.793Z,93.8506
2019-04-16T02:12:24.331Z,94.2351
2019-04-16T02:13:27.305Z,94.2992
2019-04-16T02:14:30.278Z,94.4594
2019-04-16T02:15:33.293Z,94.3771
2019-04-16T02:16:36.318Z,94.2046
2019-04-16T02:17:39.303Z,93.8384
2019-04-16T02:18:42.288Z,93.3974
2019-04-16T02:19:45.312Z,93.3623
2019-04-16T02:20:48.299Z,93.2845
2019-04-16T02:21:51.318Z,93.1640
2019-04-16T02:22:54.293Z,93.4203
2019-04-16T02:23:57.863Z,93.6492
2019-04-16T02:25:01.311Z,92.5933
2019-04-16T02:26:04.315Z,92.8069
2019-04-16T02:27:07.297Z,92.8710
2019-04-16T02:28:10.903Z,92.8756
2019-04-16T02:29:14.292Z,93.0877
2019-04-16T02:30:17.333Z,93.8567
2019-04-16T02:31:20.313Z,94.3450
2019-04-16T02:32:23.304Z,94.6975
2019-04-16T02:33:26.368Z,94.9508
2019-04-16T02:34:29.346Z,95.0103
2019-04-16T02:35:32.347Z,95.1095
2019-04-16T02:36:35.161Z,95.3399
2019-04-16T02:37:39.867Z,95.3155
2019-04-16T02:38:52.378Z,95.5276
2019-04-16T02:39:51.324Z,95.7229
2019-04-16T02:40:54.930Z,95.9579
2019-04-16T02:41:58.669Z,96.1807
2019-04-16T02:43:06.522Z,96.5621
2019-04-16T02:44:14.195Z,96.5301
2019-04-16T02:45:22.569Z,96.4019
2019-04-16T02:46:30.621Z,96.4828
2019-04-16T02:47:39.820Z,96.6430
2019-04-16T02:48:42.283Z,96.6171
2019-04-16T02:49:45.436Z,96.7025
2019-04-16T02:50:48.801Z,96.8124
2019-04-16T02:51:52.288Z,96.8627
2019-04-16T02:52:55.289Z,96.9497
2019-04-16T02:53:59.841Z,96.9009
2019-04-16T02:55:09.553Z,96.9451
2019-04-16T02:56:17.405Z,96.8811
2019-04-16T02:57:25.955Z,96.7041
2019-04-16T02:58:33.962Z,96.6980
2019-04-16T02:59:37.983Z,96.6995
2019-04-16T03:00:41.291Z,96.6537
2019-04-16T03:01:44.299Z,96.5484
2019-04-16T03:02:47.555Z,96.5103
2019-04-16T03:03:55.547Z,96.4965
2019-04-16T03:05:00.276Z,96.5805
2019-04-16T03:06:03.268Z,96.9177
2019-04-16T03:07:06.290Z,97.0047
2019-04-16T03:08:09.304Z,96.8093
2019-04-16T03:09:12.297Z,96.8734
2019-04-16T03:10:15.449Z,96.7681
2019-04-16T03:11:19.021Z,96.6537
2019-04-16T03:12:23.037Z,96.6217
2019-04-16T03:13:26.312Z,96.7910
2019-04-16T03:14:35.651Z,96.6354
2019-04-16T03:15:38.282Z,96.5301
2019-04-16T03:16:41.959Z,96.3195
2019-04-16T03:17:45.301Z,96.4202
2019-04-16T03:18:48.239Z,96.0815
2019-04-16T03:19:52.117Z,96.0403
2019-04-16T03:20:55.642Z,96.3134
2019-04-16T03:22:02.190Z,96.1501
2019-04-16T03:23:07.143Z,96.3409
2019-04-16T03:24:11.095Z,96.3684
2019-04-16T03:25:14.747Z,96.4157
2019-04-16T03:26:18.366Z,96.6247
2019-04-16T03:27:22.914Z,96.5515
2019-04-16T03:28:27.134Z,96.5301
2019-04-16T03:29:34.179Z,96.5576
2019-04-16T03:30:42.101Z,96.4462
2019-04-16T03:31:46.318Z,96.5301
2019-04-16T03:32:59.911Z,96.7315
2019-04-16T03:34:03.305Z,96.6766
2019-04-16T03:35:06.330Z,96.7666
2019-04-16T03:36:09.538Z,96.7132
2019-04-16T03:37:12.297Z,96.1990
2019-04-16T03:38:15.298Z,95.4986
2019-04-16T03:39:20.339Z,94.8547
2019-04-16T03:40:25.964Z,93.6233
2019-04-16T03:41:29.289Z,93.3623
2019-04-16T03:42:32.311Z,92.4514
2019-04-16T03:43:34.289Z,92.8771
2019-04-16T03:44:37.959Z,92.8588
2019-04-16T03:45:41.113Z,92.6558
2019-04-16T03:46:46.961Z,92.4056
2019-04-16T03:47:52.072Z,93.1182
2019-04-16T03:48:56.194Z,93.2189
2019-04-16T03:50:00.135Z,93.0785
2019-04-16T03:51:04.310Z,93.1060
2019-04-16T03:52:08.773Z,93.0495
2019-04-16T03:53:16.459Z,93.1869
2019-04-16T03:54:22.459Z,93.3761
2019-04-16T03:55:27.109Z,93.7865
2019-04-16T03:56:53.304Z,94.5693
2019-04-16T03:57:56.296Z,95.5505
2019-04-16T03:58:59.300Z,95.7183
2019-04-16T04:00:02.140Z,96.1730
2019-04-16T04:01:05.291Z,96.1944
2019-04-16T04:02:09.271Z,96.2737
2019-04-16T04:03:27.016Z,96.3790
2019-04-16T04:04:30.284Z,96.5438
2019-04-16T04:05:35.136Z,96.8139
2019-04-16T04:06:39.509Z,96.9100
2019-04-16T04:07:44.220Z,97.0199
2019-04-16T04:08:51.494Z,96.9421
2019-04-16T04:09:58.649Z,96.9879
2019-04-16T04:11:02.329Z,97.0703
2019-04-16T04:12:05.503Z,96.9924
2019-04-16T04:13:08.310Z,97.3114
2019-04-16T04:14:11.271Z,97.0825
2019-04-16T04:15:14.366Z,97.2198
2019-04-16T04:16:17.888Z,97.0703
2019-04-16T04:17:21.291Z,97.1618
2019-04-16T04:18:24.338Z,97.2747
2019-04-16T04:19:28.111Z,97.1054
2019-04-16T04:20:31.892Z,97.1466
2019-04-16T04:21:35.294Z,97.1206
2019-04-16T04:22:38.296Z,97.3892
2019-04-16T04:23:41.304Z,97.3541
2019-04-16T04:24:44.294Z,97.5586
2019-04-16T04:25:47.292Z,97.6135
2019-04-16T04:26:50.282Z,97.8347
2019-04-16T04:27:53.318Z,97.9721
2019-04-16T04:28:56.296Z,97.7020
2019-04-16T04:29:59.314Z,97.6089
2019-04-16T04:31:02.295Z,97.8469
2019-04-16T04:32:05.287Z,97.4914
2019-04-16T04:33:10.128Z,97.4502
2019-04-16T04:34:15.775Z,97.2427
2019-04-16T04:35:22.091Z,97.2717
2019-04-16T04:36:27.057Z,97.1344
2019-04-16T04:37:32.008Z,97.2244
2019-04-16T04:38:37.359Z,97.3175
2019-04-16T04:39:44.136Z,97.4075
2019-04-16T04:40:50.943Z,97.4685
2019-04-16T04:41:56.529Z,97.4960
2019-04-16T04:43:00.925Z,97.6516
2019-04-16T04:44:05.243Z,97.6837
2019-04-16T04:45:09.922Z,97.6974
2019-04-16T04:46:15.038Z,97.6883
2019-04-16T04:47:19.693Z,97.6745
2019-04-16T04:48:24.285Z,97.6364
2019-04-16T04:49:30.119Z,97.4456
2019-04-16T04:50:35.387Z,97.1283
2019-04-16T04:51:42.655Z,96.8185
2019-04-16T04:52:47.346Z,96.4233
2019-04-16T04:53:50.318Z,96.2219
2019-04-16T04:54:54.897Z,96.0891
2019-04-16T04:55:58.279Z,96.0769
2019-04-16T04:57:01.292Z,95.8831
2019-04-16T04:58:04.309Z,95.9304
2019-04-16T04:59:07.306Z,96.1257
2019-04-16T05:00:10.365Z,96.4981
2019-04-16T05:01:14.231Z,96.8673
2019-04-16T05:02:17.307Z,96.8368
2019-04-16T05:03:20.275Z,96.7865
2019-04-16T05:04:23.343Z,96.6949
2019-04-16T05:05:26.302Z,96.6476
2019-04-16T05:06:29.304Z,96.5698
2019-04-16T05:07:32.358Z,96.6628
2019-04-16T05:08:35.411Z,96.6628
2019-04-16T05:09:38.320Z,96.6842
2019-04-16T05:10:43.422Z,96.7956
2019-04-16T05:11:48.323Z,96.7803
2019-04-16T05:12:53.551Z,96.9284
2019-04-16T05:13:57.027Z,96.9192
2019-04-16T05:15:03.643Z,97.0733
2019-04-16T05:16:07.331Z,97.0779
2019-04-16T05:17:10.455Z,97.1023
2019-04-16T05:18:13.339Z,97.0840
2019-04-16T05:19:16.299Z,97.1435
2019-04-16T05:20:19.387Z,97.0703
2019-04-16T05:21:22.322Z,97.0749
2019-04-16T05:22:25.291Z,97.1923
2019-04-16T05:23:28.323Z,97.1252
2019-04-16T05:24:31.460Z,97.2290
2019-04-16T05:25:34.524Z,97.0703
2019-04-16T05:26:37.419Z,97.0565
2019-04-16T05:27:41.404Z,97.1511
2019-04-16T05:28:45.407Z,97.0153
2019-04-16T05:29:48.861Z,96.7819
2019-04-16T05:30:53.095Z,96.9360
2019-04-16T05:31:57.294Z,97.1115
2019-04-16T05:33:04.924Z,97.2152
2019-04-16T05:34:10.694Z,97.2488
2019-04-16T05:35:13.309Z,97.2015
2019-04-16T05:36:16.281Z,97.3114
2019-04-16T05:37:20.203Z,97.3495
2019-04-16T05:38:24.793Z,97.5036
2019-04-16T05:39:28.640Z,97.5921
2019-04-16T05:40:34.337Z,97.5921
2019-04-16T05:41:38.300Z,97.6059
2019-04-16T05:42:41.901Z,97.5769
2019-04-16T05:43:45.299Z,97.4731
2019-04-16T05:44:48.302Z,97.4594
2019-04-16T05:45:51.240Z,97.4990
2019-04-16T05:46:54.304Z,97.5540
2019-04-16T05:47:57.295Z,97.5265
2019-04-16T05:49:00.311Z,97.4960
2019-04-16T05:50:03.282Z,97.4731
2019-04-16T05:51:06.287Z,97.4502
2019-04-16T05:52:09.286Z,97.4960
2019-04-16T05:53:13.565Z,97.3953
2019-04-16T05:54:16.285Z,97.4899
2019-04-16T05:55:19.457Z,97.4578
2019-04-16T05:56:23.716Z,97.0977
2019-04-16T05:57:28.315Z,96.7086
2019-04-16T05:58:31.625Z,96.7636
2019-04-16T05:59:34.577Z,96.7819
2019-04-16T06:00:38.584Z,96.5942
2019-04-16T06:01:45.376Z,96.5240
2019-04-16T06:02:50.552Z,96.7086
2019-04-16T06:03:54.318Z,96.6217
2019-04-16T06:04:57.275Z,96.6354
2019-04-16T06:06:00.311Z,96.4843
2019-04-16T06:07:07.403Z,96.3973
2019-04-16T06:08:11.276Z,95.8190
2019-04-16T06:09:14.312Z,95.7153
2019-04-16T06:10:18.887Z,96.0861
2019-04-16T06:11:29.140Z,95.8663
2019-04-16T06:12:32.567Z,95.5550
2019-04-16T06:13:35.299Z,94.8363
2019-04-16T06:14:39.195Z,94.0032
2019-04-16T06:15:43.067Z,93.5531
2019-04-16T06:16:46.297Z,92.8450
2019-04-16T06:17:49.981Z,93.2464
2019-04-16T06:18:53.274Z,93.3715
2019-04-16T06:19:56.276Z,93.6828
2019-04-16T06:20:59.316Z,93.4401
2019-04-16T06:22:02.328Z,92.7749
2019-04-16T06:23:05.327Z,92.9915
2019-04-16T06:24:08.748Z,92.5780
2019-04-16T06:25:12.101Z,91.8837
2019-04-16T06:26:16.854Z,91.7952
2019-04-16T06:27:20.981Z,91.4748
2019-04-16T06:28:24.479Z,90.5089
2019-04-16T06:29:28.997Z,90.9957
2019-04-16T06:30:33.886Z,91.1635
2019-04-16T06:31:39.236Z,91.5724
2019-04-16T06:32:43.325Z,91.3985
2019-04-16T06:33:47.286Z,91.1879
2019-04-16T06:34:51.033Z,92.0760
2019-04-16T06:35:54.273Z,90.8156
2019-04-16T06:36:57.481Z,90.9270
2019-04-16T06:38:01.027Z,91.2093
2019-04-16T06:39:04.292Z,91.4382
2019-04-16T06:40:08.345Z,91.7449
2019-04-16T06:41:13.866Z,91.8639
2019-04-16T06:42:21.697Z,92.1248
2019-04-16T06:43:27.373Z,92.6162
2019-04-16T06:44:34.779Z,93.2250
2019-04-16T06:45:39.372Z,93.0144
2019-04-16T06:46:42.996Z,93.1334
2019-04-16T06:47:46.332Z,92.9946
2019-04-16T06:48:50.199Z,93.3074
2019-04-16T06:49:54.180Z,92.8038
2019-04-16T06:50:58.213Z,92.2850
2019-04-16T06:52:01.484Z,91.1788
2019-04-16T06:53:05.336Z,90.3349
2019-04-16T06:54:08.398Z,90.7942
2019-04-16T06:55:11.302Z,90.6096
2019-04-16T06:56:14.510Z,89.9199
2019-04-16T06:57:17.310Z,90.2113
2019-04-16T06:58:20.301Z,90.0237
2019-04-16T06:59:23.315Z,88.8655
2019-04-16T07:00:26.314Z,88.5222
2019-04-16T07:01:29.365Z,88.7419
2019-04-16T07:02:32.305Z,88.5451
2019-04-16T07:03:35.282Z,89.7719
2019-04-16T07:04:38.289Z,88.9494
2019-04-16T07:05:41.283Z,89.2683
2019-04-16T07:06:44.361Z,88.6656
2019-04-16T07:07:47.300Z,88.2200
2019-04-16T07:08:50.815Z,87.7226
2019-04-16T07:09:56.775Z,87.3320
2019-04-16T07:11:01.328Z,85.5161
2019-04-16T07:12:04.287Z,86.2608
2019-04-16T07:13:09.960Z,86.0060
2019-04-16T07:14:16.868Z,83.0259
2019-04-16T07:15:24.220Z,84.9882
2019-04-16T07:16:29.215Z,83.1174
2019-04-16T07:17:33.770Z,82.9709
2019-04-16T07:18:38.641Z,81.6876
2019-04-16T07:19:42.979Z,81.9348
2019-04-16T07:20:47.015Z,80.9201
2019-04-16T07:21:50.925Z,83.1937
2019-04-16T07:22:53.597Z,82.5666
2019-04-16T07:23:58.395Z,82.0447
2019-04-16T07:25:04.445Z,83.0198
2019-04-16T07:26:13.599Z,82.4628
2019-04-16T07:27:20.074Z,82.2782
2019-04-16T07:28:25.691Z,83.4012
2019-04-16T07:29:32.756Z,82.5940
2019-04-16T07:30:40.009Z,82.3194
2019-04-16T07:31:44.376Z,82.4933
2019-04-16T07:32:49.121Z,83.0304
2019-04-16T07:33:52.965Z,83.2715
2019-04-16T07:34:56.251Z,83.9902
2019-04-16T07:35:59.254Z,84.4251
2019-04-16T07:37:04.754Z,83.1617
2019-04-16T07:38:11.284Z,84.4984
2019-04-16T07:39:28.662Z,83.2898
2019-04-16T07:40:23.294Z,82.6993
2019-04-16T07:41:27.284Z,82.0768
2019-04-16T07:42:30.261Z,83.2456
2019-04-16T07:43:34.355Z,82.4201
2019-04-16T07:44:39.281Z,81.8860
2019-04-16T07:45:44.362Z,83.1128
2019-04-16T07:46:48.320Z,82.4933
2019-04-16T07:47:53.371Z,81.7670
2019-04-16T07:48:56.263Z,82.6123
2019-04-16T07:50:01.285Z,81.4282
2019-04-16T07:51:05.467Z,80.2747
2019-04-16T07:52:12.148Z,82.1454
2019-04-16T07:53:17.240Z,82.1134
2019-04-16T07:54:21.769Z,80.9751
2019-04-16T07:55:26.655Z,80.2411
2019-04-16T07:56:31.088Z,80.0626
2019-04-16T07:57:35.294Z,81.6937
2019-04-16T07:58:38.779Z,78.7457
2019-04-16T07:59:42.300Z,79.3805
2019-04-16T08:00:45.403Z,78.7686
2019-04-16T08:01:48.792Z,78.4054
2019-04-16T08:02:53.867Z,77.8881
2019-04-16T08:04:00.926Z,78.9426
2019-04-16T08:05:09.097Z,79.0112
2019-04-16T08:06:14.339Z,77.5219
2019-04-16T08:07:20.147Z,76.6445
2019-04-16T08:08:25.490Z,80.0488
2019-04-16T08:09:30.106Z,75.9792
2019-04-16T08:10:33.397Z,79.1531
2019-04-16T08:11:37.374Z,77.5998
2019-04-16T08:12:41.977Z,76.1074
2019-04-16T08:13:45.823Z,74.7326
2019-04-16T08:14:49.252Z,77.8439
2019-04-16T08:15:52.298Z,77.9629
2019-04-16T08:16:55.260Z,76.8231
2019-04-16T08:17:58.605Z,76.7590
2019-04-16T08:19:02.083Z,76.3043
2019-04-16T08:20:06.063Z,78.8357
2019-04-16T08:21:12.135Z,76.7346
2019-04-16T08:22:16.715Z,76.3775
2019-04-16T08:23:20.714Z,76.4385
2019-04-16T08:24:25.894Z,75.1003
2019-04-16T08:25:33.527Z,75.9380
2019-04-16T08:26:37.342Z,77.4182
2019-04-16T08:27:40.326Z,75.2071
2019-04-16T08:28:43.342Z,74.8669
2019-04-16T08:29:48.890Z,75.2026
2019-04-16T08:30:52.336Z,74.7463
2019-04-16T08:31:55.924Z,77.4640
2019-04-16T08:33:05.449Z,77.7508
2019-04-16T08:34:08.537Z,75.1827
2019-04-16T08:35:11.303Z,75.5184
2019-04-16T08:36:15.092Z,75.0744
2019-04-16T08:37:18.807Z,73.0587
2019-04-16T08:38:22.263Z,73.5393
2019-04-16T08:39:24.911Z,73.9742
2019-04-16T08:40:28.315Z,73.2769
2019-04-16T08:41:31.313Z,73.5790
2019-04-16T08:42:44.468Z,75.7595
2019-04-16T08:43:45.696Z,74.0475
2019-04-16T08:44:48.640Z,71.8822
2019-04-16T08:45:52.810Z,72.9976
2019-04-16T08:46:58.653Z,73.5286
2019-04-16T08:48:02.321Z,71.1665
2019-04-16T08:49:05.752Z,73.0404
2019-04-16T08:50:11.365Z,72.1599
2019-04-16T08:51:29.338Z,71.0719
2019-04-16T08:52:24.777Z,73.3791
2019-04-16T08:53:29.733Z,72.9946
2019-04-16T08:54:33.689Z,71.8349
2019-04-16T08:55:35.843Z,71.8166
2019-04-16T08:56:43.378Z,75.6542
2019-04-16T08:57:47.175Z,73.2631
2019-04-16T08:58:51.376Z,73.9330
2019-04-16T08:59:54.990Z,73.5607
2019-04-16T09:00:59.157Z,73.1548
2019-04-16T09:02:03.038Z,72.8374
2019-04-16T09:03:06.276Z,72.6329
2019-04-16T09:04:09.722Z,72.7459
2019-04-16T09:05:12.994Z,72.1645
2019-04-16T09:06:16.337Z,74.0963
2019-04-16T09:07:20.080Z,74.4488
2019-04-16T09:08:23.938Z,72.7291
2019-04-16T09:09:27.245Z,73.3227
2019-04-16T09:10:32.199Z,74.0780
2019-04-16T09:11:36.155Z,71.9997
2019-04-16T09:12:44.968Z,71.8303
2019-04-16T09:13:48.461Z,70.2739
2019-04-16T09:14:54.836Z,71.9463
2019-04-16T09:16:00.056Z,73.5851
2019-04-16T09:17:03.520Z,71.4519
2019-04-16T09:18:07.481Z,71.4565
2019-04-16T09:19:10.454Z,70.2693
2019-04-16T09:20:15.025Z,72.1889
2019-04-16T09:21:18.972Z,70.0954
2019-04-16T09:22:22.370Z,69.0806
2019-04-16T09:23:26.625Z,70.7195
2019-04-16T09:24:30.414Z,71.6716
2019-04-16T09:25:34.111Z,68.3284
2019-04-16T09:26:37.296Z,70.0282
2019-04-16T09:27:40.240Z,68.1773
2019-04-16T09:28:43.622Z,68.5496
2019-04-16T09:29:55.827Z,68.2017
2019-04-16T09:31:00.166Z,64.5670
2019-04-16T09:32:03.297Z,65.2018
2019-04-16T09:33:06.319Z,65.9113
2019-04-16T09:34:09.354Z,69.4636
2019-04-16T09:35:18.422Z,65.7099
2019-04-16T09:36:22.137Z,69.0166
2019-04-16T09:37:25.529Z,66.6209
2019-04-16T09:38:33.265Z,65.6184
2019-04-16T09:39:37.673Z,65.9220
2019-04-16T09:40:40.277Z,64.8493
2019-04-16T09:42:01.805Z,65.9113
2019-04-16T09:43:16.520Z,62.9725
2019-04-16T09:44:15.011Z,61.7868
2019-04-16T09:45:18.266Z,61.8479
2019-04-16T09:46:44.727Z,63.1754
2019-04-16T09:47:32.769Z,62.5330
2019-04-16T09:48:36.333Z,62.7222
2019-04-16T09:49:39.389Z,61.9898
2019-04-16T09:50:46.635Z,63.0198
2019-04-16T09:51:51.192Z,66.9047
2019-04-16T09:52:57.155Z,62.0478
2019-04-16T09:54:05.551Z,65.2491
2019-04-16T09:55:15.258Z,63.4134
2019-04-16T09:56:23.408Z,65.1011
2019-04-16T09:57:32.286Z,63.3036
2019-04-16T09:58:38.072Z,63.6698
2019-04-16T09:59:44.781Z,62.0981
2019-04-16T10:00:51.308Z,60.1495
2019-04-16T10:01:54.328Z,64.5243
2019-04-16T10:03:00.974Z,62.7527
2019-04-16T10:04:04.352Z,60.5280
2019-04-16T10:05:07.323Z,62.6612
2019-04-16T10:06:19.056Z,64.0024
2019-04-16T10:07:23.536Z,61.7380
2019-04-16T10:08:29.235Z,61.7517
2019-04-16T10:09:37.635Z,62.2538
2019-04-16T10:10:40.329Z,59.6780
2019-04-16T10:11:43.295Z,59.4263
2019-04-16T10:12:46.293Z,59.7131
2019-04-16T10:13:49.299Z,58.3963
2019-04-16T10:14:55.569Z,61.6724
2019-04-16T10:15:58.380Z,59.7101
2019-04-16T10:17:01.378Z,63.8666
2019-04-16T10:18:04.366Z,60.1358
2019-04-16T10:19:08.332Z,62.6719
2019-04-16T10:20:12.717Z,62.9862
2019-04-16T10:21:20.117Z,57.7173
2019-04-16T10:22:23.308Z,60.4929
2019-04-16T10:23:29.688Z,60.0443
2019-04-16T10:24:32.333Z,57.1649
2019-04-16T10:25:47.530Z,55.1354
2019-04-16T10:26:51.310Z,57.7676
2019-04-16T10:27:54.303Z,58.6648
2019-04-16T10:28:57.293Z,57.1008
2019-04-16T10:30:00.358Z,56.9848
2019-04-16T10:31:14.708Z,58.7015
2019-04-16T10:32:18.182Z,55.6298
2019-04-16T10:33:21.585Z,58.8724
2019-04-16T10:34:29.276Z,54.2123
2019-04-16T10:35:32.405Z,53.5714
2019-04-16T10:36:40.756Z,52.8878
2019-04-16T10:37:53.087Z,54.0917
2019-04-16T10:38:57.357Z,55.9365
2019-04-16T10:40:00.389Z,55.3018
2019-04-16T10:41:03.359Z,56.3165
2019-04-16T10:42:06.916Z,56.7193
2019-04-16T10:43:10.273Z,58.5290
2019-04-16T10:44:13.330Z,54.5373
2019-04-16T10:45:16.353Z,55.8648
2019-04-16T10:46:21.496Z,52.1508
2019-04-16T10:47:24.373Z,55.4009
2019-04-16T10:48:27.302Z,53.2464
2019-04-16T10:49:30.514Z,53.2769
2019-04-16T10:50:33.397Z,52.6787
2019-04-16T10:51:37.054Z,53.6583
2019-04-16T10:52:40.652Z,53.3242
2019-04-16T10:53:45.142Z,52.9534
2019-04-16T10:54:48.369Z,53.6904
2019-04-16T10:55:51.279Z,53.7438
2019-04-16T10:56:57.902Z,53.5378
2019-04-16T10:58:02.379Z,51.7357
2019-04-16T10:59:06.100Z,51.2871
2019-04-16T11:00:10.108Z,56.0784
2019-04-16T11:01:14.018Z,54.5419
2019-04-16T11:02:17.361Z,54.5922
2019-04-16T11:03:20.347Z,53.4752
2019-04-16T11:04:23.276Z,52.0821
2019-04-16T11:05:26.457Z,55.2361
2019-04-16T11:06:29.278Z,55.4971
2019-04-16T11:07:32.545Z,55.6039
2019-04-16T11:08:36.275Z,53.6767
2019-04-16T11:09:39.359Z,55.4009
2019-04-16T11:10:42.286Z,53.5943
2019-04-16T11:11:45.330Z,53.0480
2019-04-16T11:12:48.875Z,55.6207
2019-04-16T11:13:59.603Z,53.9818
2019-04-16T11:15:03.355Z,54.3496
2019-04-16T11:16:08.820Z,54.3343
2019-04-16T11:17:12.639Z,54.9752
2019-04-16T11:18:20.399Z,52.4315
2019-04-16T11:19:24.571Z,54.8806
2019-04-16T12:16:01.268Z,40.2899
2019-04-16T12:17:02.353Z,38.9548
2019-04-16T12:18:03.381Z,37.9736
2019-04-16T12:19:04.381Z,35.8267
2019-04-16T12:20:05.378Z,36.1685
2019-04-16T12:21:06.380Z,34.2229
2019-04-16T12:22:07.359Z,34.3557
2019-04-16T12:30:14.110Z,37.3007
2019-04-16T12:31:17.070Z,33.9681
2019-04-16T12:32:18.400Z,36.1608
2019-04-16T12:36:59.065Z,33.0785
2019-04-16T12:38:00.387Z,34.8226
2019-04-16T12:39:01.374Z,34.4747
2019-04-16T12:40:02.592Z,35.6283
2019-04-16T12:41:03.383Z,33.9956
